sensor_id;sensor_type;location;lat;lon;timestamp;P1;durP1;ratioP1;P2;durP2;ratioP2
58472;SDS011;44775;51.564;5.460;2023-02-07T00:01:18;57.35;;;26.30;;
58472;SDS011;44775;51.564;5.460;2023-02-07T00:03:44;54.30;;;26.38;;
58472;SDS011;44775;51.564;5.460;2023-02-07T00:06:11;57.17;;;25.70;;
58472;SDS011;44775;51.564;5.460;2023-02-07T00:08:40;57.20;;;26.10;;
58472;SDS011;44775;51.564;5.460;2023-02-07T00:11:06;61.90;;;25.63;;
58472;SDS011;44775;51.564;5.460;2023-02-07T00:13:33;57.65;;;27.42;;
58472;SDS011;44775;51.564;5.460;2023-02-07T00:15:59;58.88;;;25.70;;
58472;SDS011;44775;51.564;5.460;2023-02-07T00:18:25;63.15;;;25.42;;
58472;SDS011;44775;51.564;5.460;2023-02-07T00:21:04;65.18;;;26.55;;
58472;SDS011;44775;51.564;5.460;2023-02-07T00:23:38;63.45;;;26.75;;
58472;SDS011;44775;51.564;5.460;2023-02-07T00:26:04;72.07;;;28.35;;
58472;SDS011;44775;51.564;5.460;2023-02-07T00:28:31;58.50;;;27.52;;
58472;SDS011;44775;51.564;5.460;2023-02-07T00:31:04;66.28;;;28.63;;
58472;SDS011;44775;51.564;5.460;2023-02-07T00:33:37;61.17;;;27.80;;
58472;SDS011;44775;51.564;5.460;2023-02-07T00:36:05;50.83;;;26.73;;
58472;SDS011;44775;51.564;5.460;2023-02-07T00:38:33;61.35;;;25.48;;
58472;SDS011;44775;51.564;5.460;2023-02-07T00:40:58;58.47;;;25.38;;
58472;SDS011;44775;51.564;5.460;2023-02-07T00:43:25;55.55;;;25.90;;
58472;SDS011;44775;51.564;5.460;2023-02-07T00:45:51;57.97;;;26.75;;
58472;SDS011;44775;51.564;5.460;2023-02-07T00:48:16;53.28;;;27.05;;
58472;SDS011;44775;51.564;5.460;2023-02-07T00:50:42;55.13;;;25.67;;
58472;SDS011;44775;51.564;5.460;2023-02-07T00:53:07;58.90;;;27.98;;
58472;SDS011;44775;51.564;5.460;2023-02-07T00:55:33;62.13;;;27.83;;
58472;SDS011;44775;51.564;5.460;2023-02-07T00:57:58;56.70;;;26.25;;
58472;SDS011;44775;51.564;5.460;2023-02-07T01:00:24;56.60;;;25.25;;
58472;SDS011;44775;51.564;5.460;2023-02-07T01:02:49;53.85;;;25.65;;
58472;SDS011;44775;51.564;5.460;2023-02-07T01:05:15;59.08;;;26.30;;
58472;SDS011;44775;51.564;5.460;2023-02-07T01:07:40;52.33;;;26.15;;
58472;SDS011;44775;51.564;5.460;2023-02-07T01:10:06;62.92;;;26.67;;
58472;SDS011;44775;51.564;5.460;2023-02-07T01:12:32;69.47;;;28.40;;
58472;SDS011;44775;51.564;5.460;2023-02-07T01:14:57;66.20;;;26.85;;
58472;SDS011;44775;51.564;5.460;2023-02-07T01:17:23;69.38;;;27.30;;
58472;SDS011;44775;51.564;5.460;2023-02-07T01:19:48;71.63;;;29.40;;
58472;SDS011;44775;51.564;5.460;2023-02-07T01:22:14;69.50;;;27.27;;
58472;SDS011;44775;51.564;5.460;2023-02-07T01:24:39;63.45;;;25.90;;
58472;SDS011;44775;51.564;5.460;2023-02-07T01:27:05;58.55;;;26.25;;
58472;SDS011;44775;51.564;5.460;2023-02-07T01:29:30;56.92;;;25.42;;
58472;SDS011;44775;51.564;5.460;2023-02-07T01:31:56;63.20;;;26.15;;
58472;SDS011;44775;51.564;5.460;2023-02-07T01:34:21;68.82;;;25.70;;
58472;SDS011;44775;51.564;5.460;2023-02-07T01:36:47;58.67;;;25.38;;
58472;SDS011;44775;51.564;5.460;2023-02-07T01:39:12;68.15;;;25.67;;
58472;SDS011;44775;51.564;5.460;2023-02-07T01:41:37;59.13;;;26.10;;
58472;SDS011;44775;51.564;5.460;2023-02-07T01:44:18;66.25;;;25.65;;
58472;SDS011;44775;51.564;5.460;2023-02-07T01:46:52;60.28;;;26.27;;
58472;SDS011;44775;51.564;5.460;2023-02-07T01:49:20;67.55;;;27.50;;
58472;SDS011;44775;51.564;5.460;2023-02-07T01:51:52;63.40;;;28.02;;
58472;SDS011;44775;51.564;5.460;2023-02-07T01:54:20;63.97;;;26.77;;
58472;SDS011;44775;51.564;5.460;2023-02-07T01:56:52;73.57;;;28.98;;
58472;SDS011;44775;51.564;5.460;2023-02-07T01:59:20;79.13;;;28.52;;
58472;SDS011;44775;51.564;5.460;2023-02-07T02:01:48;83.50;;;29.17;;
58472;SDS011;44775;51.564;5.460;2023-02-07T02:04:13;71.00;;;28.33;;
58472;SDS011;44775;51.564;5.460;2023-02-07T02:06:39;64.35;;;26.42;;
58472;SDS011;44775;51.564;5.460;2023-02-07T02:09:12;70.97;;;27.67;;
58472;SDS011;44775;51.564;5.460;2023-02-07T02:14:36;66.88;;;27.55;;
58472;SDS011;44775;51.564;5.460;2023-02-07T02:17:27;85.60;;;28.95;;
58472;SDS011;44775;51.564;5.460;2023-02-07T02:25:45;80.68;;;28.83;;
58472;SDS011;44775;51.564;5.460;2023-02-07T02:34:08;78.90;;;29.33;;
58472;SDS011;44775;51.564;5.460;2023-02-07T02:44:30;67.53;;;29.17;;
58472;SDS011;44775;51.564;5.460;2023-02-07T02:47:01;86.00;;;32.38;;
58472;SDS011;44775;51.564;5.460;2023-02-07T02:49:27;84.45;;;31.33;;
58472;SDS011;44775;51.564;5.460;2023-02-07T02:51:55;79.18;;;30.55;;
58472;SDS011;44775;51.564;5.460;2023-02-07T02:54:34;95.65;;;32.22;;
58472;SDS011;44775;51.564;5.460;2023-02-07T03:00:16;80.38;;;30.17;;
58472;SDS011;44775;51.564;5.460;2023-02-07T03:06:36;89.38;;;29.58;;
58472;SDS011;44775;51.564;5.460;2023-02-07T03:08:47;96.18;;;29.45;;
58472;SDS011;44775;51.564;5.460;2023-02-07T03:11:22;77.93;;;29.15;;
58472;SDS011;44775;51.564;5.460;2023-02-07T03:19:54;84.00;;;30.83;;
58472;SDS011;44775;51.564;5.460;2023-02-07T03:22:28;78.50;;;29.77;;
58472;SDS011;44775;51.564;5.460;2023-02-07T03:24:55;86.13;;;29.02;;
58472;SDS011;44775;51.564;5.460;2023-02-07T03:27:24;234.38;;;35.90;;
58472;SDS011;44775;51.564;5.460;2023-02-07T03:29:52;166.93;;;33.30;;
58472;SDS011;44775;51.564;5.460;2023-02-07T03:32:21;94.85;;;31.67;;
58472;SDS011;44775;51.564;5.460;2023-02-07T03:34:52;110.72;;;31.73;;
58472;SDS011;44775;51.564;5.460;2023-02-07T03:37:25;100.53;;;33.58;;
58472;SDS011;44775;51.564;5.460;2023-02-07T03:39:56;158.27;;;34.90;;
58472;SDS011;44775;51.564;5.460;2023-02-07T03:42:34;111.00;;;35.75;;
58472;SDS011;44775;51.564;5.460;2023-02-07T03:45:04;124.15;;;34.63;;
58472;SDS011;44775;51.564;5.460;2023-02-07T03:47:35;126.75;;;34.65;;
58472;SDS011;44775;51.564;5.460;2023-02-07T03:50:01;145.90;;;34.80;;
58472;SDS011;44775;51.564;5.460;2023-02-07T03:52:26;138.95;;;31.35;;
58472;SDS011;44775;51.564;5.460;2023-02-07T03:54:52;142.07;;;34.90;;
58472;SDS011;44775;51.564;5.460;2023-02-07T03:57:17;117.65;;;34.42;;
58472;SDS011;44775;51.564;5.460;2023-02-07T03:59:43;99.32;;;32.88;;
58472;SDS011;44775;51.564;5.460;2023-02-07T04:02:08;126.43;;;33.67;;
58472;SDS011;44775;51.564;5.460;2023-02-07T04:04:34;151.00;;;31.77;;
58472;SDS011;44775;51.564;5.460;2023-02-07T04:06:59;142.80;;;31.60;;
58472;SDS011;44775;51.564;5.460;2023-02-07T04:09:25;181.90;;;34.92;;
58472;SDS011;44775;51.564;5.460;2023-02-07T04:11:50;109.13;;;32.30;;
58472;SDS011;44775;51.564;5.460;2023-02-07T04:14:16;179.50;;;36.42;;
58472;SDS011;44775;51.564;5.460;2023-02-07T04:16:44;137.18;;;32.53;;
58472;SDS011;44775;51.564;5.460;2023-02-07T04:19:10;174.65;;;33.90;;
58472;SDS011;44775;51.564;5.460;2023-02-07T04:21:35;151.32;;;32.40;;
58472;SDS011;44775;51.564;5.460;2023-02-07T04:24:01;126.50;;;30.83;;
58472;SDS011;44775;51.564;5.460;2023-02-07T04:26:26;148.32;;;30.55;;
58472;SDS011;44775;51.564;5.460;2023-02-07T04:28:52;124.55;;;29.98;;
58472;SDS011;44775;51.564;5.460;2023-02-07T04:31:17;123.00;;;30.90;;
58472;SDS011;44775;51.564;5.460;2023-02-07T04:33:42;97.22;;;31.75;;
58472;SDS011;44775;51.564;5.460;2023-02-07T04:36:08;144.40;;;32.38;;
58472;SDS011;44775;51.564;5.460;2023-02-07T04:38:33;173.82;;;31.42;;
58472;SDS011;44775;51.564;5.460;2023-02-07T04:41:00;203.80;;;33.63;;
58472;SDS011;44775;51.564;5.460;2023-02-07T04:43:33;142.57;;;33.40;;
58472;SDS011;44775;51.564;5.460;2023-02-07T04:46:00;275.92;;;37.95;;
58472;SDS011;44775;51.564;5.460;2023-02-07T04:48:26;171.10;;;31.05;;
58472;SDS011;44775;51.564;5.460;2023-02-07T04:50:52;214.02;;;34.25;;
58472;SDS011;44775;51.564;5.460;2023-02-07T04:53:17;213.57;;;33.03;;
58472;SDS011;44775;51.564;5.460;2023-02-07T04:55:46;195.35;;;33.92;;
58472;SDS011;44775;51.564;5.460;2023-02-07T04:58:12;115.28;;;30.33;;
58472;SDS011;44775;51.564;5.460;2023-02-07T05:00:38;155.95;;;31.33;;
58472;SDS011;44775;51.564;5.460;2023-02-07T05:03:04;115.47;;;30.00;;
58472;SDS011;44775;51.564;5.460;2023-02-07T05:05:29;92.80;;;29.90;;
58472;SDS011;44775;51.564;5.460;2023-02-07T05:07:54;114.75;;;31.20;;
58472;SDS011;44775;51.564;5.460;2023-02-07T05:10:20;124.70;;;31.83;;
58472;SDS011;44775;51.564;5.460;2023-02-07T05:12:45;133.65;;;30.40;;
58472;SDS011;44775;51.564;5.460;2023-02-07T05:15:11;117.88;;;29.98;;
58472;SDS011;44775;51.564;5.460;2023-02-07T05:17:36;129.45;;;29.13;;
58472;SDS011;44775;51.564;5.460;2023-02-07T05:20:03;87.32;;;28.10;;
58472;SDS011;44775;51.564;5.460;2023-02-07T05:22:29;208.63;;;31.35;;
58472;SDS011;44775;51.564;5.460;2023-02-07T05:24:55;100.65;;;26.88;;
58472;SDS011;44775;51.564;5.460;2023-02-07T05:27:20;142.57;;;30.17;;
58472;SDS011;44775;51.564;5.460;2023-02-07T05:29:46;92.20;;;28.63;;
58472;SDS011;44775;51.564;5.460;2023-02-07T05:32:12;188.73;;;32.90;;
58472;SDS011;44775;51.564;5.460;2023-02-07T05:34:57;113.15;;;30.25;;
58472;SDS011;44775;51.564;5.460;2023-02-07T05:37:23;97.68;;;28.48;;
58472;SDS011;44775;51.564;5.460;2023-02-07T05:39:48;112.90;;;29.38;;
58472;SDS011;44775;51.564;5.460;2023-02-07T05:42:14;194.27;;;29.50;;
58472;SDS011;44775;51.564;5.460;2023-02-07T05:44:39;160.07;;;29.92;;
58472;SDS011;44775;51.564;5.460;2023-02-07T05:47:05;121.32;;;28.98;;
58472;SDS011;44775;51.564;5.460;2023-02-07T05:49:30;138.38;;;29.00;;
58472;SDS011;44775;51.564;5.460;2023-02-07T05:51:55;113.03;;;29.48;;
58472;SDS011;44775;51.564;5.460;2023-02-07T05:54:21;116.85;;;29.83;;
58472;SDS011;44775;51.564;5.460;2023-02-07T05:56:46;183.80;;;29.52;;
58472;SDS011;44775;51.564;5.460;2023-02-07T05:59:12;97.82;;;28.00;;
58472;SDS011;44775;51.564;5.460;2023-02-07T06:01:37;102.82;;;25.25;;
58472;SDS011;44775;51.564;5.460;2023-02-07T06:04:03;100.95;;;28.40;;
58472;SDS011;44775;51.564;5.460;2023-02-07T06:06:28;75.70;;;27.17;;
58472;SDS011;44775;51.564;5.460;2023-02-07T06:08:54;75.10;;;24.55;;
58472;SDS011;44775;51.564;5.460;2023-02-07T06:11:19;80.18;;;28.48;;
58472;SDS011;44775;51.564;5.460;2023-02-07T06:13:45;111.43;;;28.75;;
58472;SDS011;44775;51.564;5.460;2023-02-07T06:16:10;110.00;;;28.08;;
58472;SDS011;44775;51.564;5.460;2023-02-07T06:18:36;103.85;;;28.48;;
58472;SDS011;44775;51.564;5.460;2023-02-07T06:21:02;98.88;;;28.23;;
58472;SDS011;44775;51.564;5.460;2023-02-07T06:23:27;76.95;;;26.20;;
58472;SDS011;44775;51.564;5.460;2023-02-07T06:25:53;81.28;;;27.38;;
58472;SDS011;44775;51.564;5.460;2023-02-07T06:28:18;90.72;;;28.58;;
58472;SDS011;44775;51.564;5.460;2023-02-07T06:30:44;110.25;;;26.23;;
58472;SDS011;44775;51.564;5.460;2023-02-07T06:33:09;81.13;;;26.00;;
58472;SDS011;44775;51.564;5.460;2023-02-07T06:35:35;113.07;;;26.92;;
58472;SDS011;44775;51.564;5.460;2023-02-07T06:38:01;82.65;;;24.67;;
58472;SDS011;44775;51.564;5.460;2023-02-07T06:40:26;88.20;;;23.38;;
58472;SDS011;44775;51.564;5.460;2023-02-07T06:42:51;86.63;;;24.45;;
58472;SDS011;44775;51.564;5.460;2023-02-07T06:45:17;84.15;;;25.35;;
58472;SDS011;44775;51.564;5.460;2023-02-07T06:47:42;93.00;;;24.73;;
58472;SDS011;44775;51.564;5.460;2023-02-07T06:50:08;125.22;;;26.05;;
58472;SDS011;44775;51.564;5.460;2023-02-07T06:52:33;150.90;;;27.45;;
58472;SDS011;44775;51.564;5.460;2023-02-07T06:54:59;127.18;;;25.42;;
58472;SDS011;44775;51.564;5.460;2023-02-07T06:57:24;81.10;;;25.02;;
58472;SDS011;44775;51.564;5.460;2023-02-07T06:59:49;64.22;;;25.38;;
58472;SDS011;44775;51.564;5.460;2023-02-07T07:02:15;108.07;;;25.70;;
58472;SDS011;44775;51.564;5.460;2023-02-07T07:04:41;103.80;;;25.23;;
58472;SDS011;44775;51.564;5.460;2023-02-07T07:07:06;70.55;;;24.30;;
58472;SDS011;44775;51.564;5.460;2023-02-07T07:09:32;136.20;;;25.98;;
58472;SDS011;44775;51.564;5.460;2023-02-07T07:11:57;114.78;;;23.55;;
58472;SDS011;44775;51.564;5.460;2023-02-07T07:14:23;158.57;;;25.20;;
58472;SDS011;44775;51.564;5.460;2023-02-07T07:16:48;78.72;;;24.20;;
58472;SDS011;44775;51.564;5.460;2023-02-07T07:19:14;118.60;;;23.85;;
58472;SDS011;44775;51.564;5.460;2023-02-07T07:21:39;122.13;;;25.88;;
58472;SDS011;44775;51.564;5.460;2023-02-07T07:24:05;104.80;;;25.95;;
58472;SDS011;44775;51.564;5.460;2023-02-07T07:26:30;107.72;;;26.38;;
58472;SDS011;44775;51.564;5.460;2023-02-07T07:28:56;104.00;;;26.77;;
58472;SDS011;44775;51.564;5.460;2023-02-07T07:31:24;68.97;;;25.10;;
58472;SDS011;44775;51.564;5.460;2023-02-07T07:33:51;106.00;;;26.83;;
58472;SDS011;44775;51.564;5.460;2023-02-07T07:36:17;56.70;;;26.45;;
58472;SDS011;44775;51.564;5.460;2023-02-07T07:38:43;73.95;;;24.80;;
58472;SDS011;44775;51.564;5.460;2023-02-07T07:41:08;77.45;;;26.50;;
58472;SDS011;44775;51.564;5.460;2023-02-07T07:43:34;76.60;;;25.95;;
58472;SDS011;44775;51.564;5.460;2023-02-07T07:45:59;74.78;;;24.42;;
58472;SDS011;44775;51.564;5.460;2023-02-07T07:48:25;66.50;;;26.40;;
58472;SDS011;44775;51.564;5.460;2023-02-07T07:50:51;61.90;;;25.60;;
58472;SDS011;44775;51.564;5.460;2023-02-07T07:53:17;101.22;;;25.40;;
58472;SDS011;44775;51.564;5.460;2023-02-07T07:55:51;80.15;;;24.60;;
58472;SDS011;44775;51.564;5.460;2023-02-07T07:58:18;64.13;;;24.85;;
58472;SDS011;44775;51.564;5.460;2023-02-07T08:00:45;58.88;;;24.20;;
58472;SDS011;44775;51.564;5.460;2023-02-07T08:03:11;100.93;;;26.15;;
58472;SDS011;44775;51.564;5.460;2023-02-07T08:05:38;123.05;;;27.60;;
58472;SDS011;44775;51.564;5.460;2023-02-07T08:08:03;75.43;;;27.65;;
58472;SDS011;44775;51.564;5.460;2023-02-07T08:10:29;65.45;;;26.80;;
58472;SDS011;44775;51.564;5.460;2023-02-07T08:12:54;65.78;;;25.05;;
58472;SDS011;44775;51.564;5.460;2023-02-07T08:15:21;80.53;;;26.05;;
58472;SDS011;44775;51.564;5.460;2023-02-07T08:17:47;64.10;;;26.05;;
58472;SDS011;44775;51.564;5.460;2023-02-07T08:20:12;55.20;;;25.60;;
58472;SDS011;44775;51.564;5.460;2023-02-07T08:22:38;59.25;;;26.60;;
58472;SDS011;44775;51.564;5.460;2023-02-07T08:25:03;54.45;;;26.20;;
58472;SDS011;44775;51.564;5.460;2023-02-07T08:27:29;51.17;;;24.67;;
58472;SDS011;44775;51.564;5.460;2023-02-07T08:29:55;48.92;;;25.40;;
58472;SDS011;44775;51.564;5.460;2023-02-07T08:32:20;53.95;;;26.88;;
58472;SDS011;44775;51.564;5.460;2023-02-07T08:34:46;54.25;;;25.70;;
58472;SDS011;44775;51.564;5.460;2023-02-07T08:37:11;61.70;;;26.45;;
58472;SDS011;44775;51.564;5.460;2023-02-07T08:39:37;54.75;;;24.83;;
58472;SDS011;44775;51.564;5.460;2023-02-07T08:42:03;56.67;;;27.42;;
58472;SDS011;44775;51.564;5.460;2023-02-07T08:46:57;52.72;;;26.05;;
58472;SDS011;44775;51.564;5.460;2023-02-07T08:49:22;54.42;;;26.23;;
58472;SDS011;44775;51.564;5.460;2023-02-07T08:51:48;59.47;;;30.95;;
58472;SDS011;44775;51.564;5.460;2023-02-07T08:54:14;52.28;;;28.13;;
58472;SDS011;44775;51.564;5.460;2023-02-07T08:56:39;54.95;;;29.10;;
58472;SDS011;44775;51.564;5.460;2023-02-07T08:59:05;56.75;;;30.05;;
58472;SDS011;44775;51.564;5.460;2023-02-07T09:01:30;64.03;;;32.70;;
58472;SDS011;44775;51.564;5.460;2023-02-07T09:03:56;57.88;;;29.65;;
58472;SDS011;44775;51.564;5.460;2023-02-07T09:06:22;64.10;;;33.75;;
58472;SDS011;44775;51.564;5.460;2023-02-07T09:08:48;68.13;;;34.53;;
58472;SDS011;44775;51.564;5.460;2023-02-07T09:11:14;58.53;;;29.73;;
58472;SDS011;44775;51.564;5.460;2023-02-07T09:13:40;60.92;;;33.30;;
58472;SDS011;44775;51.564;5.460;2023-02-07T09:18:35;56.42;;;29.55;;
58472;SDS011;44775;51.564;5.460;2023-02-07T09:21:00;58.42;;;33.33;;
58472;SDS011;44775;51.564;5.460;2023-02-07T09:23:26;54.60;;;31.40;;
58472;SDS011;44775;51.564;5.460;2023-02-07T09:25:52;50.95;;;29.30;;
58472;SDS011;44775;51.564;5.460;2023-02-07T09:28:18;59.67;;;31.50;;
58472;SDS011;44775;51.564;5.460;2023-02-07T09:30:44;51.63;;;29.55;;
58472;SDS011;44775;51.564;5.460;2023-02-07T09:33:11;50.47;;;28.55;;
58472;SDS011;44775;51.564;5.460;2023-02-07T09:35:39;53.03;;;29.90;;
58472;SDS011;44775;51.564;5.460;2023-02-07T09:38:06;48.35;;;29.05;;
58472;SDS011;44775;51.564;5.460;2023-02-07T09:40:34;45.90;;;26.20;;
58472;SDS011;44775;51.564;5.460;2023-02-07T09:45:36;40.92;;;24.80;;
58472;SDS011;44775;51.564;5.460;2023-02-07T09:48:10;42.65;;;26.60;;
58472;SDS011;44775;51.564;5.460;2023-02-07T09:50:47;38.40;;;24.25;;
58472;SDS011;44775;51.564;5.460;2023-02-07T09:54:00;38.25;;;23.63;;
58472;SDS011;44775;51.564;5.460;2023-02-07T09:56:20;36.70;;;21.55;;
58472;SDS011;44775;51.564;5.460;2023-02-07T09:58:55;51.30;;;24.65;;
58472;SDS011;44775;51.564;5.460;2023-02-07T10:01:44;40.55;;;20.90;;
58472;SDS011;44775;51.564;5.460;2023-02-07T10:06:53;45.95;;;22.63;;
58472;SDS011;44775;51.564;5.460;2023-02-07T10:09:23;35.05;;;19.70;;
58472;SDS011;44775;51.564;5.460;2023-02-07T10:26:03;26.92;;;16.38;;
58472;SDS011;44775;51.564;5.460;2023-02-07T10:31:33;24.08;;;16.05;;
58472;SDS011;44775;51.564;5.460;2023-02-07T10:34:24;23.60;;;14.30;;
58472;SDS011;44775;51.564;5.460;2023-02-07T10:36:51;19.83;;;13.40;;
58472;SDS011;44775;51.564;5.460;2023-02-07T10:39:36;22.42;;;13.50;;
58472;SDS011;44775;51.564;5.460;2023-02-07T10:42:08;20.85;;;13.15;;
58472;SDS011;44775;51.564;5.460;2023-02-07T10:44:39;19.38;;;12.90;;
58472;SDS011;44775;51.564;5.460;2023-02-07T10:47:04;18.20;;;12.50;;
58472;SDS011;44775;51.564;5.460;2023-02-07T10:49:34;17.23;;;12.10;;
58472;SDS011;44775;51.564;5.460;2023-02-07T10:54:53;18.15;;;11.52;;
58472;SDS011;44775;51.564;5.460;2023-02-07T10:57:24;17.80;;;11.63;;
58472;SDS011;44775;51.564;5.460;2023-02-07T11:00:03;16.40;;;11.38;;
58472;SDS011;44775;51.564;5.460;2023-02-07T11:02:35;20.23;;;9.50;;
58472;SDS011;44775;51.564;5.460;2023-02-07T11:05:24;16.50;;;10.73;;
58472;SDS011;44775;51.564;5.460;2023-02-07T11:07:59;17.90;;;11.75;;
58472;SDS011;44775;51.564;5.460;2023-02-07T11:10:36;16.25;;;10.88;;
58472;SDS011;44775;51.564;5.460;2023-02-07T11:13:04;16.45;;;11.70;;
58472;SDS011;44775;51.564;5.460;2023-02-07T11:15:38;16.98;;;10.60;;
58472;SDS011;44775;51.564;5.460;2023-02-07T11:21:16;25.25;;;12.13;;
58472;SDS011;44775;51.564;5.460;2023-02-07T11:23:48;14.98;;;10.73;;
58472;SDS011;44775;51.564;5.460;2023-02-07T11:26:15;19.83;;;11.65;;
58472;SDS011;44775;51.564;5.460;2023-02-07T11:28:43;22.58;;;10.68;;
58472;SDS011;44775;51.564;5.460;2023-02-07T11:31:11;13.07;;;9.40;;
58472;SDS011;44775;51.564;5.460;2023-02-07T11:33:39;14.75;;;10.32;;
58472;SDS011;44775;51.564;5.460;2023-02-07T11:38:35;13.23;;;9.32;;
58472;SDS011;44775;51.564;5.460;2023-02-07T11:41:09;16.92;;;10.10;;
58472;SDS011;44775;51.564;5.460;2023-02-07T11:43:50;13.85;;;9.02;;
58472;SDS011;44775;51.564;5.460;2023-02-07T11:46:17;14.15;;;10.10;;
58472;SDS011;44775;51.564;5.460;2023-02-07T11:48:45;16.90;;;10.25;;
58472;SDS011;44775;51.564;5.460;2023-02-07T11:51:14;12.10;;;9.07;;
58472;SDS011;44775;51.564;5.460;2023-02-07T11:53:46;16.58;;;9.68;;
58472;SDS011;44775;51.564;5.460;2023-02-07T11:59:25;13.93;;;9.40;;
58472;SDS011;44775;51.564;5.460;2023-02-07T12:01:59;13.75;;;10.07;;
58472;SDS011;44775;51.564;5.460;2023-02-07T12:04:32;13.18;;;9.77;;
58472;SDS011;44775;51.564;5.460;2023-02-07T12:07:00;12.00;;;8.30;;
58472;SDS011;44775;51.564;5.460;2023-02-07T12:09:32;16.17;;;9.52;;
58472;SDS011;44775;51.564;5.460;2023-02-07T12:12:17;13.70;;;8.93;;
58472;SDS011;44775;51.564;5.460;2023-02-07T12:14:59;15.87;;;9.57;;
58472;SDS011;44775;51.564;5.460;2023-02-07T12:20:54;11.20;;;7.53;;
58472;SDS011;44775;51.564;5.460;2023-02-07T12:34:26;10.85;;;7.70;;
58472;SDS011;44775;51.564;5.460;2023-02-07T12:42:46;10.80;;;8.00;;
58472;SDS011;44775;51.564;5.460;2023-02-07T12:45:22;11.55;;;8.07;;
58472;SDS011;44775;51.564;5.460;2023-02-07T12:48:05;15.52;;;7.88;;
58472;SDS011;44775;51.564;5.460;2023-02-07T12:59:13;10.30;;;7.80;;
58472;SDS011;44775;51.564;5.460;2023-02-07T13:05:01;9.93;;;7.47;;
58472;SDS011;44775;51.564;5.460;2023-02-07T13:07:38;10.13;;;7.57;;
58472;SDS011;44775;51.564;5.460;2023-02-07T13:22:55;14.43;;;8.70;;
58472;SDS011;44775;51.564;5.460;2023-02-07T13:25:22;11.65;;;8.13;;
58472;SDS011;44775;51.564;5.460;2023-02-07T13:27:51;11.35;;;8.38;;
58472;SDS011;44775;51.564;5.460;2023-02-07T13:30:20;10.70;;;8.25;;
58472;SDS011;44775;51.564;5.460;2023-02-07T13:32:46;11.95;;;8.90;;
58472;SDS011;44775;51.564;5.460;2023-02-07T13:35:20;12.80;;;9.10;;
58472;SDS011;44775;51.564;5.460;2023-02-07T13:40:55;12.70;;;8.05;;
58472;SDS011;44775;51.564;5.460;2023-02-07T13:46:23;12.25;;;8.65;;
58472;SDS011;44775;51.564;5.460;2023-02-07T13:49:07;14.18;;;9.23;;
58472;SDS011;44775;51.564;5.460;2023-02-07T13:51:42;11.80;;;8.57;;
58472;SDS011;44775;51.564;5.460;2023-02-07T13:54:27;16.60;;;9.00;;
58472;SDS011;44775;51.564;5.460;2023-02-07T13:56:56;13.95;;;8.68;;
58472;SDS011;44775;51.564;5.460;2023-02-07T13:59:42;11.38;;;8.82;;
58472;SDS011;44775;51.564;5.460;2023-02-07T14:02:18;11.88;;;9.00;;
58472;SDS011;44775;51.564;5.460;2023-02-07T14:04:56;13.10;;;8.82;;
58472;SDS011;44775;51.564;5.460;2023-02-07T14:07:31;11.57;;;8.75;;
58472;SDS011;44775;51.564;5.460;2023-02-07T14:10:00;12.98;;;8.80;;
58472;SDS011;44775;51.564;5.460;2023-02-07T14:14:52;12.25;;;8.00;;
58472;SDS011;44775;51.564;5.460;2023-02-07T14:19:53;9.15;;;7.82;;
58472;SDS011;44775;51.564;5.460;2023-02-07T14:32:25;9.95;;;7.93;;
58472;SDS011;44775;51.564;5.460;2023-02-07T14:35:03;9.95;;;7.80;;
58472;SDS011;44775;51.564;5.460;2023-02-07T14:38:01;8.43;;;7.32;;
58472;SDS011;44775;51.564;5.460;2023-02-07T14:45:36;9.88;;;7.28;;
58472;SDS011;44775;51.564;5.460;2023-02-07T14:48:04;11.00;;;7.30;;
58472;SDS011;44775;51.564;5.460;2023-02-07T14:50:31;9.32;;;7.55;;
58472;SDS011;44775;51.564;5.460;2023-02-07T14:53:02;10.35;;;8.05;;
58472;SDS011;44775;51.564;5.460;2023-02-07T14:55:31;10.88;;;7.80;;
58472;SDS011;44775;51.564;5.460;2023-02-07T14:58:05;11.68;;;7.93;;
58472;SDS011;44775;51.564;5.460;2023-02-07T15:00:37;10.25;;;8.18;;
58472;SDS011;44775;51.564;5.460;2023-02-07T15:03:14;10.82;;;8.50;;
58472;SDS011;44775;51.564;5.460;2023-02-07T15:05:53;9.90;;;8.05;;
58472;SDS011;44775;51.564;5.460;2023-02-07T15:08:27;11.15;;;8.75;;
58472;SDS011;44775;51.564;5.460;2023-02-07T15:11:04;13.35;;;8.43;;
58472;SDS011;44775;51.564;5.460;2023-02-07T15:13:41;10.93;;;9.15;;
58472;SDS011;44775;51.564;5.460;2023-02-07T15:18:42;11.48;;;9.38;;
58472;SDS011;44775;51.564;5.460;2023-02-07T15:21:15;11.98;;;9.13;;
58472;SDS011;44775;51.564;5.460;2023-02-07T15:23:43;13.45;;;9.85;;
58472;SDS011;44775;51.564;5.460;2023-02-07T15:26:16;12.80;;;9.30;;
58472;SDS011;44775;51.564;5.460;2023-02-07T15:28:43;13.50;;;9.02;;
58472;SDS011;44775;51.564;5.460;2023-02-07T15:31:13;12.25;;;9.80;;
58472;SDS011;44775;51.564;5.460;2023-02-07T15:33:47;14.20;;;9.90;;
58472;SDS011;44775;51.564;5.460;2023-02-07T15:36:36;11.32;;;8.98;;
58472;SDS011;44775;51.564;5.460;2023-02-07T15:39:11;12.68;;;9.77;;
58472;SDS011;44775;51.564;5.460;2023-02-07T15:41:39;13.65;;;9.30;;
58472;SDS011;44775;51.564;5.460;2023-02-07T15:44:06;13.35;;;10.40;;
58472;SDS011;44775;51.564;5.460;2023-02-07T15:46:48;13.45;;;9.77;;
58472;SDS011;44775;51.564;5.460;2023-02-07T15:49:34;13.95;;;10.32;;
58472;SDS011;44775;51.564;5.460;2023-02-07T15:54:47;15.95;;;11.23;;
58472;SDS011;44775;51.564;5.460;2023-02-07T15:57:22;14.68;;;10.93;;
58472;SDS011;44775;51.564;5.460;2023-02-07T15:59:49;15.68;;;10.68;;
58472;SDS011;44775;51.564;5.460;2023-02-07T16:02:52;15.70;;;11.10;;
58472;SDS011;44775;51.564;5.460;2023-02-07T16:05:20;14.88;;;11.40;;
58472;SDS011;44775;51.564;5.460;2023-02-07T16:07:48;16.15;;;11.80;;
58472;SDS011;44775;51.564;5.460;2023-02-07T16:12:52;16.48;;;12.27;;
58472;SDS011;44775;51.564;5.460;2023-02-07T16:15:32;16.10;;;12.13;;
58472;SDS011;44775;51.564;5.460;2023-02-07T16:18:00;18.58;;;12.02;;
58472;SDS011;44775;51.564;5.460;2023-02-07T16:20:27;17.45;;;12.52;;
58472;SDS011;44775;51.564;5.460;2023-02-07T16:22:58;18.92;;;13.27;;
58472;SDS011;44775;51.564;5.460;2023-02-07T16:25:26;17.90;;;13.27;;
58472;SDS011;44775;51.564;5.460;2023-02-07T16:27:54;20.20;;;12.57;;
58472;SDS011;44775;51.564;5.460;2023-02-07T16:30:23;17.17;;;13.00;;
58472;SDS011;44775;51.564;5.460;2023-02-07T16:32:53;18.08;;;12.60;;
58472;SDS011;44775;51.564;5.460;2023-02-07T16:35:23;17.63;;;13.35;;
58472;SDS011;44775;51.564;5.460;2023-02-07T16:37:50;17.23;;;12.55;;
58472;SDS011;44775;51.564;5.460;2023-02-07T16:40:16;17.02;;;12.10;;
58472;SDS011;44775;51.564;5.460;2023-02-07T16:42:43;20.15;;;13.75;;
58472;SDS011;44775;51.564;5.460;2023-02-07T16:45:24;15.73;;;12.23;;
58472;SDS011;44775;51.564;5.460;2023-02-07T16:47:51;17.33;;;12.32;;
58472;SDS011;44775;51.564;5.460;2023-02-07T16:50:18;15.23;;;11.77;;
58472;SDS011;44775;51.564;5.460;2023-02-07T16:52:48;17.55;;;12.57;;
58472;SDS011;44775;51.564;5.460;2023-02-07T16:55:16;18.55;;;12.73;;
58472;SDS011;44775;51.564;5.460;2023-02-07T16:57:44;18.02;;;12.48;;
58472;SDS011;44775;51.564;5.460;2023-02-07T17:00:14;17.33;;;12.40;;
58472;SDS011;44775;51.564;5.460;2023-02-07T17:02:41;17.85;;;12.20;;
58472;SDS011;44775;51.564;5.460;2023-02-07T17:05:07;17.77;;;12.38;;